Time;durP1;ratioP1;P1;durP2;ratioP2;P2;SDS_P1;SDS_P2;PMS_P1;PMS_P2;Temp;Humidity;BMP_temperature;BMP_pressure;BME280_temperature;BME280_humidity;BME280_pressure;Samples;Min_cycle;Max_cycle;Signal;HPM_P1;HPM_P2
2023/08/13 00:00:24;;;;;;;9.07;3.75;;;;;;;21.51;59.44;100790.31;2082020;28;20018;-73
2023/08/13 00:01:25;;;;;;;6.15;3.70;;;;;;;21.52;59.67;100786.41;2089893;28;20868;-72
2023/08/13 00:02:28;;;;;;;7.82;3.97;;;;;;;21.50;59.87;100787.91;2097891;28;20075;-74
2023/08/13 00:03:33;;;;;;;15.23;3.67;;;;;;;21.49;59.93;100792.59;2094598;28;20732;-73
2023/08/13 00:04:37;;;;;;;7.75;3.80;;;;;;;21.49;59.66;100787.09;2089747;28;20781;-74
2023/08/13 00:05:39;;;;;;;7.00;3.50;;;;;;;21.49;59.76;100792.59;2082341;28;20040;-74
2023/08/13 00:06:41;;;;;;;5.28;3.45;;;;;;;21.48;59.64;100791.00;2081711;28;20030;-73
2023/08/13 00:07:43;;;;;;;7.70;3.70;;;;;;;21.49;59.66;100792.59;2090257;28;20039;-73
2023/08/13 00:08:45;;;;;;;8.43;4.13;;;;;;;21.48;59.75;100793.72;2089758;28;20974;-73
2023/08/13 00:09:47;;;;;;;7.38;3.80;;;;;;;21.47;59.92;100788.63;2073474;28;21147;-73
2023/08/13 00:10:48;;;;;;;6.95;4.10;;;;;;;21.46;60.04;100803.44;2073653;28;21249;-74
2023/08/13 00:11:53;;;;;;;10.05;4.28;;;;;;;21.46;59.72;100797.94;2081023;28;20953;-74
2023/08/13 00:12:54;;;;;;;7.38;3.70;;;;;;;21.44;60.45;100798.31;2082637;28;20069;-74
2023/08/13 00:13:58;;;;;;;12.98;4.13;;;;;;;21.41;60.86;100796.28;2089307;28;20072;-73
2023/08/13 00:15:07;;;;;;;7.97;4.30;;;;;;;21.39;61.46;100793.06;2083270;28;20022;-73
2023/08/13 00:16:11;;;;;;;11.45;4.07;;;;;;;21.37;62.36;100795.34;2098257;28;20953;-73
2023/08/13 00:17:13;;;;;;;11.70;4.75;;;;;;;21.34;63.41;100797.94;2089752;28;20037;-73
2023/08/13 00:18:14;;;;;;;6.07;3.97;;;;;;;21.29;64.27;100793.53;2073853;28;20041;-73
2023/08/13 00:19:18;;;;;;;9.25;4.22;;;;;;;21.24;65.19;100793.75;2074057;28;20034;-73
2023/08/13 00:20:23;;;;;;;9.10;4.10;;;;;;;21.17;65.64;100785.34;2082350;28;20137;-73
2023/08/13 00:21:24;;;;;;;8.07;4.03;;;;;;;21.13;66.11;100781.72;2098546;28;20041;-73
2023/08/13 00:22:30;;;;;;;8.45;4.05;;;;;;;21.11;66.29;100776.56;2089595;28;20140;-73
2023/08/13 00:23:32;;;;;;;5.60;4.05;;;;;;;21.08;66.50;100781.94;2082140;28;20038;-72
2023/08/13 00:24:33;;;;;;;6.22;4.00;;;;;;;21.06;66.54;100769.41;2089819;28;20088;-72
2023/08/13 00:25:35;;;;;;;9.27;4.35;;;;;;;21.02;66.66;100757.56;2098309;28;20100;-73
2023/08/13 00:26:42;;;;;;;11.32;3.78;;;;;;;21.00;67.03;100770.00;2089371;28;20029;-73
2023/08/13 00:27:43;;;;;;;9.90;4.47;;;;;;;20.97;66.98;100776.16;2090592;28;20033;-72
2023/08/13 00:28:45;;;;;;;11.55;4.28;;;;;;;20.94;67.22;100760.44;2089535;28;20018;-73
2023/08/13 00:29:46;;;;;;;16.08;3.85;;;;;;;20.97;67.22;100774.22;2081702;28;20040;-73
2023/08/13 00:30:50;;;;;;;8.93;4.05;;;;;;;20.98;67.20;100772.28;2089592;28;20028;-73
2023/08/13 00:31:55;;;;;;;7.10;3.90;;;;;;;21.00;67.37;100781.72;2097884;28;20040;-72
2023/08/13 00:32:56;;;;;;;5.90;3.90;;;;;;;21.00;67.34;100765.31;2081501;28;20046;-73
2023/08/13 00:33:59;;;;;;;6.32;4.40;;;;;;;21.01;67.39;100766.13;2073789;28;20120;-73
2023/08/13 00:35:01;;;;;;;9.00;4.07;;;;;;;21.00;67.41;100776.25;2089532;28;20032;-73
2023/08/13 00:36:06;;;;;;;8.40;4.30;;;;;;;21.00;67.44;100772.75;2073020;28;20026;-73
2023/08/13 00:37:13;;;;;;;8.40;3.92;;;;;;;20.98;67.25;100772.28;2076391;28;20109;-73
2023/08/13 00:38:15;;;;;;;8.55;3.88;;;;;;;20.97;67.40;100771.47;2090822;28;20022;-73
2023/08/13 00:39:17;;;;;;;8.32;4.22;;;;;;;20.98;67.39;100773.06;2072946;28;20856;-73
2023/08/13 00:40:21;;;;;;;9.10;4.00;;;;;;;20.99;67.41;100780.13;2066068;28;20903;-73
2023/08/13 00:41:22;;;;;;;10.95;4.10;;;;;;;21.00;67.60;100764.53;2073735;28;20080;-74
2023/08/13 00:42:30;;;;;;;10.00;4.53;;;;;;;20.98;67.37;100770.34;2097819;28;20073;-74
2023/08/13 00:43:31;;;;;;;20.77;4.70;;;;;;;20.96;67.19;100753.47;2089214;28;20072;-73
2023/08/13 00:44:34;;;;;;;8.77;4.28;;;;;;;20.95;67.57;100759.28;2081662;28;20038;-73
2023/08/13 00:45:37;;;;;;;10.77;4.10;;;;;;;20.95;67.90;100762.03;2073760;28;20042;-74
2023/08/13 00:46:42;;;;;;;8.38;4.47;;;;;;;20.94;67.91;100768.63;2073688;28;20038;-73
2023/08/13 00:47:44;;;;;;;7.35;4.03;;;;;;;20.94;68.09;100755.78;2082324;28;20140;-73
2023/08/13 00:48:54;;;;;;;7.95;4.30;;;;;;;20.94;68.11;100766.69;2097826;28;20792;-74
2023/08/13 00:49:56;;;;;;;8.98;4.20;;;;;;;20.95;68.01;100767.50;2073942;28;20301;-74
2023/08/13 00:50:57;;;;;;;7.32;3.53;;;;;;;20.93;67.94;100767.84;2073038;28;20850;-73
2023/08/13 00:52:00;;;;;;;9.75;4.35;;;;;;;20.95;68.17;100760.09;2073115;28;20148;-73
2023/08/13 00:53:21;;;;;;;9.95;4.40;;;;;;;20.93;68.06;100767.84;2081506;28;20045;-72
2023/08/13 00:54:30;;;;;;;7.55;3.88;;;;;;;20.90;67.97;100770.44;2088523;28;20037;-72
2023/08/13 00:55:32;;;;;;;8.38;3.95;;;;;;;20.89;68.14;100768.88;2089569;28;20025;-72
2023/08/13 00:56:35;;;;;;;9.05;4.18;;;;;;;20.89;68.29;100766.13;2089742;28;20021;-73
2023/08/13 00:57:37;;;;;;;8.18;3.70;;;;;;;20.87;68.08;100763.75;2081727;28;20877;-73
2023/08/13 00:58:42;;;;;;;8.27;3.60;;;;;;;20.88;68.06;100770.81;2090480;28;21018;-73
2023/08/13 00:59:44;;;;;;;7.45;3.80;;;;;;;20.85;67.66;100763.28;2081101;28;20042;-73
2023/08/13 01:00:46;;;;;;;8.27;4.00;;;;;;;20.85;67.78;100767.97;2081796;28;20077;-72
2023/08/13 01:01:48;;;;;;;9.13;3.67;;;;;;;20.80;67.75;100768.97;2097764;28;20043;-73
2023/08/13 01:02:50;;;;;;;7.80;3.80;;;;;;;20.82;67.66;100769.44;2081275;28;20045;-73
2023/08/13 01:03:53;;;;;;;9.95;4.28;;;;;;;20.83;67.78;100765.56;2081266;28;20040;-73
2023/08/13 01:04:59;;;;;;;6.65;3.88;;;;;;;20.85;67.96;100768.75;2090045;28;20042;-72
2023/08/13 01:06:10;;;;;;;7.88;3.67;;;;;;;20.85;67.65;100767.97;2090151;28;20021;-74
2023/08/13 01:07:16;;;;;;;6.53;3.92;;;;;;;20.85;67.59;100768.75;2097832;28;20131;-73
2023/08/13 01:08:34;;;;;;;4.70;3.72;;;;;;;20.88;67.50;100775.47;2082381;28;20038;-73
2023/08/13 01:09:41;;;;;;;5.95;3.60;;;;;;;20.86;67.23;100772.28;2068839;28;20882;-72
2023/08/13 01:10:49;;;;;;;5.30;3.95;;;;;;;20.83;67.22;100765.56;2069163;28;20105;-72
2023/08/13 01:12:03;;;;;;;5.65;3.67;;;;;;;20.85;67.17;100767.97;2084071;28;20141;-72
2023/08/13 01:13:22;;;;;;;6.60;3.53;;;;;;;20.83;67.17;100766.34;2082685;28;20857;-73
2023/08/13 01:14:51;;;;;;;10.70;4.10;;;;;;;20.85;67.20;100763.28;2080192;28;21299;-72
2023/08/13 01:16:00;;;;;;;9.52;4.15;;;;;;;20.87;67.39;100765.66;2086613;28;20048;-73
2023/08/13 01:17:07;;;;;;;7.72;4.07;;;;;;;20.86;67.10;100767.59;2090276;28;20041;-74
2023/08/13 01:18:10;;;;;;;10.60;3.70;;;;;;;20.87;67.00;100771.94;2091525;28;20041;-72
2023/08/13 01:19:13;;;;;;;10.20;4.13;;;;;;;20.87;67.21;100760.19;2105798;28;20024;-71
2023/08/13 01:20:18;;;;;;;6.03;3.80;;;;;;;20.87;67.21;100760.19;2106489;28;20076;-74
2023/08/13 01:21:19;;;;;;;6.90;3.70;;;;;;;20.87;67.27;100771.13;2106205;28;20202;-73
2023/08/13 01:22:26;;;;;;;8.85;3.67;;;;;;;20.87;67.48;100761.03;2097920;28;20136;-72
2023/08/13 01:23:28;;;;;;;6.95;3.92;;;;;;;20.87;67.47;100766.50;2105638;28;20875;-72
2023/08/13 01:24:30;;;;;;;8.52;4.10;;;;;;;20.87;67.82;100762.94;2106070;28;20032;-72
2023/08/13 01:25:36;;;;;;;8.32;4.10;;;;;;;20.85;68.09;100757.81;2089349;28;21365;-72
2023/08/13 01:27:06;;;;;;;8.77;4.05;;;;;;;20.85;68.51;100762.50;2081312;28;20044;-72
2023/08/13 01:28:39;;;;;;;10.80;3.90;;;;;;;20.84;69.00;100756.25;2097594;28;20959;-72
2023/08/13 01:29:55;;;;;;;5.85;4.05;;;;;;;20.81;69.74;100756.94;2096142;28;20045;-72
2023/08/13 01:31:08;;;;;;;6.28;3.97;;;;;;;20.76;70.47;100755.19;2106153;28;20025;-71
2023/08/13 01:32:14;;;;;;;10.63;4.53;;;;;;;20.72;70.74;100751.56;2099646;28;20053;-73
2023/08/13 01:33:28;;;;;;;5.55;4.13;;;;;;;20.73;70.93;100753.16;2098217;28;20044;-72
2023/08/13 01:34:31;;;;;;;5.90;4.03;;;;;;;20.71;71.65;100752.72;2099809;28;20872;-72
2023/08/13 01:35:33;;;;;;;8.88;4.10;;;;;;;20.67;71.72;100751.00;2098071;28;20083;-72
2023/08/13 01:36:35;;;;;;;6.88;4.20;;;;;;;20.63;72.41;100741.91;2097899;28;20033;-72
2023/08/13 01:37:37;;;;;;;12.90;4.40;;;;;;;20.60;72.76;100763.28;2106191;28;20024;-73
2023/08/13 01:38:39;;;;;;;7.85;3.90;;;;;;;20.60;72.89;100752.38;2089229;28;20777;-73
2023/08/13 01:39:41;;;;;;;6.38;4.18;;;;;;;20.61;72.80;100755.88;2089650;28;20025;-72
2023/08/13 01:40:43;;;;;;;7.00;4.40;;;;;;;20.63;73.21;100753.63;2106283;28;20025;-73
2023/08/13 01:41:51;;;;;;;5.15;4.00;;;;;;;20.63;73.21;100744.63;2106341;28;20025;-72
2023/08/13 01:42:52;;;;;;;5.95;3.80;;;;;;;20.65;73.06;100753.25;2089128;28;20080;-72
2023/08/13 01:43:57;;;;;;;5.25;4.20;;;;;;;20.64;73.11;100741.53;2081728;28;20030;-72
2023/08/13 01:44:59;;;;;;;12.30;4.35;;;;;;;20.67;73.24;100742.81;2089679;28;21180;-72
2023/08/13 01:46:01;;;;;;;6.22;4.03;;;;;;;20.67;73.37;100742.81;2089225;28;20908;-72
2023/08/13 01:47:05;;;;;;;5.50;4.10;;;;;;;20.67;73.63;100746.31;2106226;28;20025;-72
2023/08/13 01:48:08;;;;;;;8.82;3.97;;;;;;;20.68;73.71;100741.66;2097498;28;20034;-73
2023/08/13 01:49:10;;;;;;;8.60;4.00;;;;;;;20.69;73.69;100743.25;2098384;28;20010;-72
2023/08/13 01:50:13;;;;;;;5.97;3.85;;;;;;;20.70;73.81;100744.84;2089002;28;20968;-72
2023/08/13 01:51:14;;;;;;;5.85;4.05;;;;;;;20.72;74.03;100745.31;2065326;28;20087;-72
2023/08/13 01:52:16;;;;;;;5.97;4.72;;;;;;;20.72;74.20;100734.38;2081857;28;20848;-72
2023/08/13 01:53:18;;;;;;;8.90;4.28;;;;;;;20.75;74.21;100736.44;2089181;28;20108;-72
2023/08/13 01:54:20;;;;;;;4.97;3.90;;;;;;;20.76;74.38;100732.56;2081303;28;20148;-73
2023/08/13 01:55:26;;;;;;;5.40;4.20;;;;;;;20.78;74.36;100727.56;2099281;28;20139;-73
2023/08/13 01:56:27;;;;;;;6.25;4.22;;;;;;;20.77;74.53;100723.22;2097485;28;20033;-73
2023/08/13 01:57:35;;;;;;;6.75;4.10;;;;;;;20.78;74.64;100725.59;2090298;28;20018;-73
2023/08/13 01:58:37;;;;;;;7.32;4.18;;;;;;;20.80;74.62;100726.03;2089415;28;20092;-73
2023/08/13 01:59:41;;;;;;;5.70;3.92;;;;;;;20.77;74.72;100718.53;2081400;28;20030;-74
2023/08/13 02:00:42;;;;;;;5.57;4.05;;;;;;;20.83;74.60;100724.56;2089865;28;20126;-73
2023/08/13 02:01:44;;;;;;;7.70;4.35;;;;;;;20.83;74.59;100727.28;2081276;28;20848;-73
2023/08/13 02:02:46;;;;;;;6.60;4.30;;;;;;;20.81;74.88;100718.66;2090780;28;20037;-73
2023/08/13 02:03:48;;;;;;;6.88;4.05;;;;;;;20.83;75.17;100716.38;2098683;28;20033;-73
2023/08/13 02:04:50;;;;;;;6.82;4.10;;;;;;;20.84;75.18;100715.25;2106802;28;20032;-73
2023/08/13 02:05:52;;;;;;;8.85;4.07;;;;;;;20.84;75.08;100712.50;2099046;28;20139;-73
2023/08/13 02:06:56;;;;;;;9.45;4.38;;;;;;;20.85;75.11;100714.09;2091022;28;20031;-73
2023/08/13 02:07:58;;;;;;;9.30;4.80;;;;;;;20.79;75.20;100718.19;2099572;28;20111;-73
2023/08/13 02:09:00;;;;;;;6.18;3.90;;;;;;;20.77;75.47;100723.22;2107403;28;20036;-74
2023/08/13 02:10:06;;;;;;;10.25;4.55;;;;;;;20.79;75.69;100719.00;2091059;28;20061;-74
2023/08/13 02:11:11;;;;;;;6.75;3.80;;;;;;;20.81;75.97;100721.41;2099464;28;20168;-74
2023/08/13 02:12:15;;;;;;;6.93;4.53;;;;;;;20.79;75.87;100719.00;2098891;28;20102;-74
2023/08/13 02:13:17;;;;;;;9.60;4.38;;;;;;;20.79;75.69;100731.88;2099393;28;20139;-74
2023/08/13 02:14:24;;;;;;;5.95;3.90;;;;;;;20.77;75.98;100726.72;2098896;28;20048;-74
2023/08/13 02:15:28;;;;;;;5.93;4.20;;;;;;;20.76;76.12;100727.09;2090772;28;20046;-73
2023/08/13 02:16:32;;;;;;;5.78;3.70;;;;;;;20.76;75.94;100727.88;2091729;28;20032;-73
2023/08/13 02:17:33;;;;;;;7.15;4.28;;;;;;;20.78;75.98;100719.34;2091206;28;20930;-73
2023/08/13 02:18:36;;;;;;;10.05;4.88;;;;;;;20.77;75.83;100723.22;2099118;28;20040;-74
2023/08/13 02:19:37;;;;;;;5.05;4.13;;;;;;;20.81;75.72;100724.13;2090738;28;20040;-73
2023/08/13 02:20:43;;;;;;;5.90;3.97;;;;;;;20.82;75.73;100725.72;2090814;28;20127;-72
2023/08/13 02:21:48;;;;;;;6.15;4.18;;;;;;;20.82;75.91;100720.25;2099680;28;20036;-73
2023/08/13 02:22:50;;;;;;;8.50;4.75;;;;;;;20.84;76.00;100726.19;2106595;28;20032;-73
2023/08/13 02:23:52;;;;;;;5.85;4.03;;;;;;;20.86;76.13;100725.81;2098772;28;20068;-73
2023/08/13 02:24:54;;;;;;;6.13;4.20;;;;;;;20.86;76.19;100731.28;2106851;28;20028;-73
2023/08/13 02:25:58;;;;;;;9.40;4.57;;;;;;;20.87;76.41;100727.41;2099346;28;20051;-73
2023/08/13 02:27:00;;;;;;;7.57;4.20;;;;;;;20.89;76.60;100725.13;2090830;28;20760;-73
2023/08/13 02:28:03;;;;;;;6.20;3.90;;;;;;;20.88;76.44;100734.47;2090895;28;20096;-73
2023/08/13 02:29:05;;;;;;;9.77;4.60;;;;;;;20.88;76.39;100735.28;2082468;28;20037;-72
2023/08/13 02:30:08;;;;;;;7.55;3.95;;;;;;;20.86;76.61;100731.28;2066502;28;20172;-73
2023/08/13 02:31:11;;;;;;;10.25;4.25;;;;;;;20.88;76.78;100734.47;2083791;28;20037;-74
2023/08/13 02:32:13;;;;;;;9.00;4.35;;;;;;;20.88;76.72;100729.81;2098835;28;20044;-73
2023/08/13 02:33:14;;;;;;;7.00;4.10;;;;;;;20.87;76.88;100738.34;2082247;28;20719;-73
2023/08/13 02:34:15;;;;;;;7.53;4.05;;;;;;;20.87;76.55;100732.88;2082173;28;20149;-74
2023/08/13 02:35:19;;;;;;;6.85;4.30;;;;;;;20.87;76.38;100728.22;2107675;28;20032;-73
2023/08/13 02:36:21;;;;;;;6.32;4.18;;;;;;;20.83;76.11;100727.28;2107266;28;20025;-73
2023/08/13 02:37:24;;;;;;;8.48;3.88;;;;;;;20.84;76.22;100728.91;2090504;28;20893;-73
2023/08/13 02:38:27;;;;;;;6.45;4.78;;;;;;;20.83;76.08;100719.09;2099258;28;20057;-73
2023/08/13 02:39:29;;;;;;;5.82;4.22;;;;;;;20.82;76.04;100723.78;2098808;28;20833;-73
2023/08/13 02:40:33;;;;;;;7.43;4.07;;;;;;;20.79;75.92;100720.94;2090769;28;20036;-73
2023/08/13 02:41:34;;;;;;;7.35;4.50;;;;;;;20.73;75.90;100714.91;2090813;28;20030;-73
2023/08/13 02:42:37;;;;;;;6.88;4.40;;;;;;;20.70;75.98;100720.25;2090310;28;20028;-73
2023/08/13 02:43:54;;;;;;;7.85;4.18;;;;;;;20.63;76.36;100725.50;2090420;28;20045;-73
2023/08/13 02:44:57;;;;;;;6.15;4.32;;;;;;;20.57;76.90;100725.72;2095504;28;21021;-73
2023/08/13 02:46:01;;;;;;;7.43;4.43;;;;;;;20.49;77.35;100723.91;2098932;28;20083;-73
2023/08/13 02:47:04;;;;;;;6.57;4.40;;;;;;;20.47;77.50;100731.63;2091592;28;20017;-73
2023/08/13 02:48:07;;;;;;;9.52;4.43;;;;;;;20.48;77.66;100732.41;2090406;28;20038;-72
2023/08/13 02:49:12;;;;;;;9.07;4.35;;;;;;;20.48;77.73;100738.66;2090902;28;20212;-72
2023/08/13 02:50:14;;;;;;;4.78;3.95;;;;;;;20.46;77.71;100734.69;2090465;28;20096;-72
2023/08/13 02:51:17;;;;;;;6.47;3.90;;;;;;;20.46;77.62;100734.69;2090130;28;20171;-72
2023/08/13 02:52:24;;;;;;;7.72;4.20;;;;;;;20.42;77.69;100731.84;2091976;28;20040;-72
2023/08/13 02:53:28;;;;;;;4.78;3.90;;;;;;;20.42;77.75;100733.78;2106763;28;20040;-71
2023/08/13 02:54:32;;;;;;;8.30;4.45;;;;;;;20.42;77.64;100740.03;2098210;28;20864;-71
2023/08/13 02:55:34;;;;;;;7.93;4.05;;;;;;;20.45;77.81;100736.63;2082514;28;20750;-72
2023/08/13 02:56:35;;;;;;;5.38;4.10;;;;;;;20.48;77.59;100735.94;2082253;28;20077;-71
2023/08/13 02:57:37;;;;;;;5.25;4.20;;;;;;;20.50;77.58;100741.88;2089942;28;20245;-72
2023/08/13 02:58:42;;;;;;;11.77;4.82;;;;;;;20.49;77.49;100739.47;2090933;28;20029;-72
2023/08/13 02:59:43;;;;;;;6.47;4.50;;;;;;;20.48;77.45;100737.88;2090115;28;20045;-71
2023/08/13 03:00:46;;;;;;;9.48;4.63;;;;;;;20.47;77.45;100737.09;2098613;28;20021;-72
2023/08/13 03:01:48;;;;;;;7.20;4.13;;;;;;;20.47;77.53;100731.63;2098785;28;20017;-72
2023/08/13 03:02:49;;;;;;;8.68;4.30;;;;;;;20.45;77.58;100733.88;2098172;28;20029;-72
2023/08/13 03:03:52;;;;;;;7.50;4.20;;;;;;;20.47;77.75;100742.53;2098329;28;20851;-72
2023/08/13 03:04:54;;;;;;;6.20;3.97;;;;;;;20.49;77.89;100740.28;2098182;28;20079;-72
2023/08/13 03:05:56;;;;;;;6.85;4.53;;;;;;;20.51;78.18;100734.47;2090483;28;20037;-72
2023/08/13 03:06:58;;;;;;;6.30;4.50;;;;;;;20.51;77.84;100729.81;2098504;28;20148;-72
2023/08/13 03:08:02;;;;;;;9.35;4.57;;;;;;;20.50;77.54;100730.16;2106879;28;20110;-72
2023/08/13 03:09:07;;;;;;;9.90;4.88;;;;;;;20.48;77.70;100733.22;2106548;28;20136;-72
2023/08/13 03:10:12;;;;;;;9.13;4.32;;;;;;;20.46;77.66;100731.94;2098628;28;20023;-72
2023/08/13 03:11:17;;;;;;;7.85;4.38;;;;;;;20.43;77.63;100730.72;2082044;28;20034;-71
2023/08/13 03:12:19;;;;;;;5.63;4.38;;;;;;;20.38;77.75;100734.44;2074536;28;20925;-72
2023/08/13 03:13:21;;;;;;;5.15;4.18;;;;;;;20.33;77.91;100726.50;2089924;28;20036;-72
2023/08/13 03:14:23;;;;;;;6.78;4.30;;;;;;;20.32;77.83;100724.09;2090076;28;20045;-72
2023/08/13 03:15:28;;;;;;;6.50;4.60;;;;;;;20.32;77.94;100719.44;2082907;28;20030;-73
2023/08/13 03:16:30;;;;;;;8.50;4.55;;;;;;;20.32;78.19;100722.16;2082404;28;20128;-73
2023/08/13 03:17:34;;;;;;;9.00;4.63;;;;;;;20.34;78.15;100732.75;2082260;28;20128;-73
2023/08/13 03:18:38;;;;;;;7.03;4.25;;;;;;;20.35;78.21;100726.16;2090612;28;20030;-73
2023/08/13 03:19:46;;;;;;;7.05;4.57;;;;;;;20.35;78.07;100723.41;2090751;28;20061;-73
2023/08/13 03:20:51;;;;;;;5.68;4.57;;;;;;;20.33;78.01;100720.22;2090665;28;20029;-73
2023/08/13 03:21:54;;;;;;;6.68;4.70;;;;;;;20.30;77.98;100726.38;2082314;28;20154;-74
2023/08/13 03:22:57;;;;;;;6.88;4.65;;;;;;;20.28;78.10;100728.66;2082275;28;20036;-72
2023/08/13 03:23:59;;;;;;;7.70;4.40;;;;;;;20.25;78.11;100726.59;2073646;28;20031;-72
2023/08/13 03:25:00;;;;;;;5.50;4.03;;;;;;;20.23;78.23;100720.69;2090203;28;20036;-73
2023/08/13 03:26:07;;;;;;;6.63;4.35;;;;;;;20.22;78.15;100730.00;2082106;28;20049;-74
2023/08/13 03:27:09;;;;;;;9.05;4.70;;;;;;;20.20;78.38;100721.34;2082822;28;20030;-75
2023/08/13 03:28:14;;;;;;;7.07;4.53;;;;;;;20.21;78.51;100726.50;2081596;28;20022;-74
2023/08/13 03:29:16;;;;;;;6.40;4.20;;;;;;;20.21;78.53;100723.75;2082745;28;20030;-73
2023/08/13 03:30:18;;;;;;;7.97;4.47;;;;;;;20.22;78.73;100722.63;2081706;28;20033;-72
2023/08/13 03:31:20;;;;;;;8.52;4.55;;;;;;;20.24;78.91;100727.72;2081890;28;20136;-72
2023/08/13 03:32:29;;;;;;;7.15;4.50;;;;;;;20.27;78.85;100721.59;2066996;28;20043;-72
2023/08/13 03:33:31;;;;;;;7.20;4.65;;;;;;;20.28;78.83;100723.19;2082714;28;20046;-72
2023/08/13 03:34:34;;;;;;;6.50;4.40;;;;;;;20.29;78.89;100727.50;2090284;28;20037;-72
2023/08/13 03:35:39;;;;;;;6.97;4.05;;;;;;;20.29;78.94;100725.56;2098566;28;20029;-72
2023/08/13 03:36:41;;;;;;;6.88;4.53;;;;;;;20.31;79.03;100717.06;2081580;28;20026;-72
2023/08/13 03:37:45;;;;;;;7.28;4.43;;;;;;;20.32;78.92;100718.63;2090253;28;20037;-72
2023/08/13 03:38:49;;;;;;;5.53;4.22;;;;;;;20.33;78.90;100721.03;2089792;28;20057;-72
2023/08/13 03:39:55;;;;;;;7.45;3.90;;;;;;;20.31;78.85;100715.13;2098277;28;20056;-72
2023/08/13 03:40:58;;;;;;;6.18;4.63;;;;;;;20.32;78.98;100718.63;2090749;28;20040;-72
2023/08/13 03:42:00;;;;;;;7.20;4.35;;;;;;;20.34;79.10;100710.91;2090041;28;20100;-72
2023/08/13 03:43:03;;;;;;;6.43;4.43;;;;;;;20.36;78.99;100709.44;2081929;28;20029;-71
2023/08/13 03:44:06;;;;;;;5.75;3.95;;;;;;;20.38;79.08;100714.53;2082111;28;20085;-72
2023/08/13 03:45:10;;;;;;;5.32;4.20;;;;;;;20.42;78.92;100718.19;2081927;28;20037;-72
2023/08/13 03:46:12;;;;;;;7.70;4.45;;;;;;;20.44;79.08;100720.59;2090198;28;20026;-72
2023/08/13 03:47:15;;;;;;;5.05;4.25;;;;;;;20.46;78.90;100718.28;2090257;28;21225;-71
2023/08/13 03:48:17;;;;;;;8.40;4.45;;;;;;;20.48;79.03;100716.81;2073620;28;20762;-72
2023/08/13 03:49:20;;;;;;;8.70;4.20;;;;;;;20.49;78.77;100718.44;2074194;28;20182;-72
2023/08/13 03:50:22;;;;;;;4.93;4.10;;;;;;;20.50;78.80;100720.00;2090379;28;20048;-72
2023/08/13 03:51:23;;;;;;;4.28;3.88;;;;;;;20.50;78.62;100722.75;2089859;28;20096;-72
2023/08/13 03:52:30;;;;;;;9.27;4.28;;;;;;;20.52;78.58;100736.91;2082410;28;20049;-72
2023/08/13 03:53:32;;;;;;;9.52;4.28;;;;;;;20.50;78.78;100730.94;2082237;28;20025;-73
2023/08/13 03:54:36;;;;;;;6.82;4.40;;;;;;;20.48;78.86;100727.75;2090057;28;20156;-73
2023/08/13 03:55:40;;;;;;;6.80;4.10;;;;;;;20.46;78.84;100726.47;2090097;28;20029;-74
2023/08/13 03:56:43;;;;;;;6.20;3.97;;;;;;;20.44;79.08;100726.84;2098898;28;20032;-74
2023/08/13 03:57:45;;;;;;;6.78;3.90;;;;;;;20.44;79.01;100731.50;2089368;28;20037;-74
2023/08/13 03:58:47;;;;;;;7.38;3.78;;;;;;;20.42;79.15;100728.31;2089755;28;20037;-74
2023/08/13 03:59:52;;;;;;;8.32;3.78;;;;;;;20.42;79.15;100733.78;2089193;28;20038;-74
2023/08/13 04:00:54;;;;;;;5.10;3.72;;;;;;;20.41;79.22;100732.97;2081693;28;20845;-75
2023/08/13 04:01:58;;;;;;;8.73;3.88;;;;;;;20.41;79.23;100741.19;2081900;28;20777;-74
2023/08/13 04:03:00;;;;;;;5.57;3.92;;;;;;;20.40;79.25;100745.06;2082051;28;20936;-75
2023/08/13 04:04:02;;;;;;;4.47;3.60;;;;;;;20.40;79.30;100742.31;2089525;28;20871;-74
2023/08/13 04:05:09;;;;;;;5.95;3.88;;;;;;;20.39;79.26;100743.44;2073880;28;20037;-75
2023/08/13 04:06:10;;;;;;;7.25;3.85;;;;;;;20.37;79.32;100741.06;2082752;28;20061;-74
2023/08/13 04:07:12;;;;;;;5.43;4.07;;;;;;;20.36;79.49;100741.38;2073625;28;20018;-74
2023/08/13 04:08:14;;;;;;;7.18;4.35;;;;;;;20.38;79.74;100747.31;2090055;28;20891;-74
2023/08/13 04:09:15;;;;;;;7.25;4.00;;;;;;;20.39;79.85;100743.44;2089734;28;20848;-74
2023/08/13 04:10:21;;;;;;;6.82;4.35;;;;;;;20.43;79.97;100740.81;2065607;28;20031;-74
2023/08/13 04:11:25;;;;;;;7.38;4.65;;;;;;;20.48;79.68;100741.41;2081084;28;20777;-74
2023/08/13 04:12:27;;;;;;;6.93;4.30;;;;;;;20.49;79.68;100739.47;2090208;28;20854;-75
2023/08/13 04:13:29;;;;;;;6.07;4.47;;;;;;;20.53;79.61;100729.50;2098645;28;20021;-73
2023/08/13 04:14:32;;;;;;;5.35;3.95;;;;;;;20.52;79.90;100739.63;2098062;28;21062;-75
2023/08/13 04:15:37;;;;;;;10.57;4.28;;;;;;;20.56;79.98;100745.22;2100072;28;20025;-75
2023/08/13 04:16:39;;;;;;;6.50;3.97;;;;;;;20.58;79.68;100738.25;2089741;28;20084;-74
2023/08/13 04:17:43;;;;;;;6.43;4.30;;;;;;;20.60;79.81;100735.19;2089781;28;21034;-74
2023/08/13 04:18:45;;;;;;;5.82;4.10;;;;;;;20.60;79.85;100741.44;2090399;28;20029;-74
2023/08/13 04:19:49;;;;;;;5.00;4.22;;;;;;;20.60;79.58;100737.91;2098113;28;20962;-73
2023/08/13 04:20:51;;;;;;;10.23;7.22;;;;;;;20.60;79.69;100735.97;2098764;28;20017;-74
2023/08/13 04:21:53;;;;;;;7.10;5.00;;;;;;;20.60;79.80;100740.63;2089855;28;20069;-74
2023/08/13 04:22:55;;;;;;;6.03;4.25;;;;;;;20.62;79.97;100738.38;2082036;28;20140;-74
2023/08/13 04:24:00;;;;;;;4.97;4.03;;;;;;;20.66;79.93;100743.94;2106264;28;20068;-73
2023/08/13 04:25:01;;;;;;;6.22;3.97;;;;;;;20.68;79.75;100741.66;2097305;28;20037;-73
2023/08/13 04:26:06;;;;;;;6.60;4.07;;;;;;;20.71;79.61;100743.69;2090330;28;20025;-73
2023/08/13 04:27:07;;;;;;;5.88;4.30;;;;;;;20.72;79.48;100743.38;2081050;28;21163;-73
2023/08/13 04:28:09;;;;;;;10.38;4.18;;;;;;;20.73;79.51;100738.69;2081331;28;20034;-73
2023/08/13 04:29:17;;;;;;;8.95;4.00;;;;;;;20.76;79.62;100743.47;2081658;28;20069;-73
2023/08/13 04:30:21;;;;;;;4.20;3.80;;;;;;;20.78;79.41;100738.47;2074174;28;20034;-73
2023/08/13 04:31:25;;;;;;;5.40;3.88;;;;;;;20.79;79.54;100751.00;2081497;28;20134;-73
2023/08/13 04:32:31;;;;;;;7.63;3.95;;;;;;;20.81;79.38;100746.00;2099342;28;20048;-73
2023/08/13 04:33:34;;;;;;;5.30;4.13;;;;;;;20.82;79.47;100739.38;2096966;28;20140;-73
2023/08/13 04:34:36;;;;;;;5.88;4.00;;;;;;;20.85;nan;100746.09;2081878;28;20793;-73
2023/08/13 04:35:38;;;;;;;6.82;4.45;;;;;;;20.92;79.24;100741.63;2089523;28;20025;-73
2023/08/13 04:36:40;;;;;;;5.00;3.85;;;;;;;20.97;79.17;100740.63;2089833;28;20065;-74
2023/08/13 04:37:45;;;;;;;6.82;4.00;;;;;;;21.01;79.00;100745.03;2090121;28;20072;-73
2023/08/13 04:38:50;;;;;;;6.63;4.20;;;;;;;21.02;79.01;100741.16;2089533;28;20068;-72
2023/08/13 04:39:53;;;;;;;5.93;4.05;;;;;;;21.03;78.91;100742.78;2089753;28;20030;-72
2023/08/13 04:40:55;;;;;;;7.28;4.05;;;;;;;21.04;78.87;100741.63;2098475;28;20036;-73
2023/08/13 04:42:00;;;;;;;9.05;4.47;;;;;;;21.08;79.02;100744.47;2105954;28;20123;-73
2023/08/13 04:43:03;;;;;;;6.10;4.00;;;;;;;21.12;78.92;100744.56;2089073;28;20045;-72
2023/08/13 04:44:09;;;;;;;9.65;4.40;;;;;;;21.21;78.74;100728.81;2073409;28;20041;-73
2023/08/13 04:45:12;;;;;;;4.85;4.32;;;;;;;21.25;78.96;100735.22;2082009;28;20046;-72
2023/08/13 04:46:15;;;;;;;7.95;3.95;;;;;;;21.28;78.92;100739.97;2090095;28;20032;-73
2023/08/13 04:47:25;;;;;;;5.53;4.00;;;;;;;21.29;78.98;100739.63;2098405;28;20099;-73
2023/08/13 04:48:47;;;;;;;6.57;3.90;;;;;;;21.34;78.91;100744.03;2098099;28;20036;-73
2023/08/13 04:49:49;;;;;;;5.82;4.20;;;;;;;21.37;79.00;100743.38;2100580;28;20026;-73
2023/08/13 04:50:51;;;;;;;7.10;4.30;;;;;;;21.40;78.76;100739.16;2089500;28;20030;-73
2023/08/13 04:51:54;;;;;;;4.53;3.72;;;;;;;21.44;78.71;100742.81;2089700;28;20038;-74
2023/08/13 04:52:58;;;;;;;5.57;3.95;;;;;;;21.53;78.74;100743.44;2098162;28;20037;-75
2023/08/13 04:54:00;;;;;;;7.40;4.10;;;;;;;21.57;78.61;100744.34;2105683;28;20127;-74
2023/08/13 04:55:05;;;;;;;5.82;3.90;;;;;;;21.63;78.36;100748.44;2089501;28;20026;-74
2023/08/13 04:56:16;;;;;;;5.97;3.90;;;;;;;21.70;78.29;100750.56;2082525;28;20045;-73
2023/08/13 04:57:18;;;;;;;5.53;3.80;;;;;;;21.82;78.10;100745.03;2098942;28;20128;-73